createdAt,value
2018-02-16T07:33:40.808Z,17.5
2018-02-16T07:34:40.404Z,17.5
2018-02-16T07:35:40.412Z,17.5
2018-02-16T07:36:40.568Z,17.5
2018-02-16T07:37:40.409Z,17.25
2018-02-16T07:38:40.433Z,17.25
2018-02-16T07:39:40.404Z,17.25
2018-02-16T07:40:40.431Z,17.25
2018-02-16T07:41:40.455Z,17.25
2018-02-16T07:42:40.361Z,17.25
2018-02-16T07:43:40.390Z,17.25
2018-02-16T07:44:40.356Z,17.25
2018-02-16T07:45:40.391Z,17.25
2018-02-16T07:46:40.351Z,17.25
2018-02-16T07:47:40.369Z,17.25
2018-02-16T07:48:40.353Z,17.25
2018-02-16T07:49:40.527Z,17
2018-02-16T07:50:40.377Z,17
2018-02-16T07:51:40.363Z,17
2018-02-16T07:52:40.360Z,17
2018-02-16T07:53:40.364Z,17.25
2018-02-16T07:54:40.366Z,17.25
2018-02-16T07:55:40.416Z,17.25
2018-02-16T07:56:40.369Z,17.25
2018-02-16T07:57:40.353Z,17.25
2018-02-16T07:58:40.644Z,17.25
2018-02-16T07:59:40.366Z,17.25
2018-02-16T08:00:40.356Z,17.5
2018-02-16T08:01:40.354Z,17.5
2018-02-16T08:02:40.366Z,17.5
2018-02-16T08:03:40.368Z,17.5
2018-02-16T08:04:40.364Z,17.5
2018-02-16T08:05:40.345Z,17.5
2018-02-16T08:06:40.362Z,17.5
2018-02-16T08:07:40.360Z,17.5
2018-02-16T08:08:40.344Z,17.5
2018-02-16T08:09:40.347Z,17.5
2018-02-16T08:10:40.362Z,17.5
2018-02-16T08:11:40.341Z,17.5
2018-02-16T08:12:40.463Z,17.5
2018-02-16T08:13:40.361Z,17.5
2018-02-16T08:14:40.381Z,17.5
2018-02-16T08:15:40.360Z,17.5
2018-02-16T08:16:40.367Z,17.5
2018-02-16T08:17:40.381Z,17.5
2018-02-16T08:18:40.362Z,17.5
2018-02-16T08:19:40.392Z,17.5
2018-02-16T08:20:40.384Z,17.5
2018-02-16T08:21:40.353Z,17.5
2018-02-16T08:22:40.354Z,17.5
2018-02-16T08:23:40.358Z,17.75
2018-02-16T08:24:40.355Z,17.75
2018-02-16T08:25:40.359Z,17.75
2018-02-16T08:26:40.371Z,17.75
2018-02-16T08:27:40.345Z,17.75
2018-02-16T08:28:40.355Z,17.75
2018-02-16T08:29:40.349Z,17.75
2018-02-16T08:30:40.353Z,17.75
2018-02-16T08:31:40.328Z,17.75
2018-02-16T08:32:40.528Z,17.75
2018-02-16T08:33:40.356Z,17.75
2018-02-16T08:34:40.359Z,17.75
2018-02-16T08:35:40.355Z,17.75
2018-02-16T08:36:40.349Z,17.75
2018-02-16T08:37:40.403Z,17.75
2018-02-16T08:38:40.355Z,17.75
2018-02-16T08:39:40.329Z,17.75
2018-02-16T08:40:40.410Z,17.75
2018-02-16T08:41:40.350Z,17.75
2018-02-16T08:42:40.429Z,17.75
2018-02-16T08:43:40.351Z,17.75
2018-02-16T08:44:40.361Z,17.75
2018-02-16T08:45:40.351Z,17.75
2018-02-16T08:46:40.365Z,17.75
2018-02-16T08:47:40.334Z,17.75
2018-02-16T08:48:40.342Z,17.75
2018-02-16T08:49:40.348Z,17.75
2018-02-16T08:50:40.354Z,17.75
2018-02-16T08:51:40.325Z,17.75
2018-02-16T08:52:40.339Z,18
2018-02-16T08:53:40.352Z,18
2018-02-16T08:54:40.444Z,18
2018-02-16T08:55:40.396Z,18
2018-02-16T08:56:40.351Z,18
2018-02-16T08:57:40.597Z,18
2018-02-16T08:58:40.348Z,18
2018-02-16T08:59:40.344Z,18
2018-02-16T09:00:40.663Z,18
2018-02-16T09:01:40.343Z,18
2018-02-16T09:02:40.341Z,18
2018-02-16T09:03:40.369Z,18.25
2018-02-16T09:04:40.354Z,18.25
2018-02-16T09:05:40.347Z,18.25
2018-02-16T09:06:40.352Z,18.25
2018-02-16T09:07:40.353Z,18.25
2018-02-16T09:08:40.383Z,18.25
2018-02-16T09:09:40.315Z,18.25
2018-02-16T09:10:40.350Z,18.25
2018-02-16T09:11:40.333Z,18.25
2018-02-16T09:12:40.328Z,18.25
2018-02-16T09:13:40.341Z,18.25
2018-02-16T09:14:40.431Z,18.25
2018-02-16T09:15:40.445Z,18.25
2018-02-16T09:16:40.340Z,18.25
2018-02-16T09:17:40.309Z,18.25
2018-02-16T09:18:40.371Z,18.25
2018-02-16T09:19:40.355Z,18.25
2018-02-16T09:20:40.400Z,18.25
2018-02-16T09:21:40.343Z,18.25
2018-02-16T09:22:40.375Z,18.25
2018-02-16T09:23:40.351Z,18.5
2018-02-16T09:24:40.350Z,18.5
2018-02-16T09:25:40.334Z,18.25
2018-02-16T09:26:40.395Z,18.25
2018-02-16T09:27:40.454Z,18.25
2018-02-16T09:28:40.352Z,18.25
2018-02-16T09:29:40.312Z,18.25
2018-02-16T09:30:40.410Z,18.25
2018-02-16T09:31:40.337Z,18.25
2018-02-16T09:32:40.345Z,18.25
2018-02-16T09:33:40.432Z,18.25
2018-02-16T09:34:40.377Z,18.25
2018-02-16T09:35:40.334Z,18.5
2018-02-16T09:36:40.388Z,18.5
2018-02-16T09:37:40.434Z,18.5
2018-02-16T09:38:40.455Z,18.5
2018-02-16T09:39:40.343Z,18.5
2018-02-16T09:40:40.342Z,18.5
2018-02-16T09:41:40.397Z,18.5
2018-02-16T09:42:40.328Z,18.5
2018-02-16T09:43:40.339Z,18.5
2018-02-16T09:44:40.370Z,18.5
2018-02-16T09:45:40.392Z,18.5
2018-02-16T09:46:40.415Z,18.5
2018-02-16T09:47:40.408Z,18.5
2018-02-16T09:48:40.342Z,18.5
2018-02-16T09:49:40.381Z,18.5
2018-02-16T09:50:40.345Z,18.5
2018-02-16T09:51:40.396Z,18.5
2018-02-16T09:52:40.418Z,18.5
2018-02-16T09:53:40.356Z,18.5
2018-02-16T09:54:40.336Z,18.5
2018-02-16T09:55:40.381Z,18.5
2018-02-16T09:56:40.344Z,18.5
2018-02-16T09:57:40.419Z,18.5
2018-02-16T09:58:40.611Z,18.5
2018-02-16T09:59:40.441Z,18.5
2018-02-16T10:00:40.398Z,18.25
2018-02-16T10:01:40.378Z,18.25
2018-02-16T10:02:40.389Z,18.5
2018-02-16T10:03:40.401Z,18.25
2018-02-16T10:04:40.431Z,18.25
2018-02-16T10:05:40.327Z,18.25
2018-02-16T10:06:40.317Z,18.25
2018-02-16T10:07:40.374Z,18.25
2018-02-16T10:08:40.318Z,18.25
2018-02-16T10:09:40.395Z,18.25
2018-02-16T10:10:40.411Z,18.25
2018-02-16T10:11:40.323Z,18.25
2018-02-16T10:12:40.332Z,18.25
2018-02-16T10:13:40.322Z,18.25
2018-02-16T10:14:40.325Z,18.25
2018-02-16T10:15:40.328Z,18.25
2018-02-16T10:16:40.330Z,18.25
2018-02-16T10:17:40.324Z,18.25
2018-02-16T10:18:40.416Z,18.25
2018-02-16T10:19:40.626Z,18.25
2018-02-16T10:20:40.293Z,18.25
2018-02-16T10:21:40.309Z,18.25
2018-02-16T10:22:40.330Z,18.25
2018-02-16T10:23:40.323Z,18.25
2018-02-16T10:24:40.372Z,18.25
2018-02-16T10:25:40.329Z,18.25
2018-02-16T10:26:40.423Z,18.25
2018-02-16T10:27:40.432Z,18.25
2018-02-16T10:28:40.310Z,18.25
2018-02-16T10:29:40.345Z,18.25
2018-02-16T10:30:40.381Z,18.25
2018-02-16T10:31:40.324Z,18.25
2018-02-16T10:32:40.307Z,18.25
2018-02-16T10:33:40.314Z,18.5
2018-02-16T10:34:40.431Z,18.25
2018-02-16T10:35:40.321Z,18.25
2018-02-16T10:36:40.367Z,18.5
2018-02-16T10:37:40.313Z,18.5
2018-02-16T10:38:40.314Z,18.5
2018-02-16T10:39:40.338Z,18.5
2018-02-16T10:40:40.311Z,18.5
2018-02-16T10:41:40.291Z,18.5
2018-02-16T10:42:40.446Z,18.5
2018-02-16T10:43:40.308Z,18.5
2018-02-16T10:44:40.339Z,18.5
2018-02-16T10:45:40.317Z,18.5
2018-02-16T10:46:40.317Z,18.5
2018-02-16T10:47:40.320Z,18.5
2018-02-16T10:48:40.325Z,18.5
2018-02-16T10:49:40.430Z,18.5
2018-02-16T10:50:40.310Z,18.5
2018-02-16T10:51:40.348Z,18.5
2018-02-16T10:52:40.285Z,18.5
2018-02-16T10:53:40.313Z,18.5
2018-02-16T10:54:40.304Z,18.75
2018-02-16T10:55:40.319Z,18.75
2018-02-16T10:56:40.340Z,18.75
2018-02-16T10:57:40.391Z,18.75
2018-02-16T10:58:40.302Z,18.75
2018-02-16T10:59:40.360Z,18.75
2018-02-16T11:00:40.317Z,18.75
2018-02-16T11:01:40.375Z,18.75
2018-02-16T11:02:40.310Z,18.75
2018-02-16T11:03:40.338Z,18.75
2018-02-16T11:04:40.343Z,18.75
2018-02-16T11:05:40.334Z,18.75
2018-02-16T11:06:40.376Z,18.75
2018-02-16T11:07:40.411Z,18.75
2018-02-16T11:08:40.313Z,18.75
2018-02-16T11:09:40.324Z,18.75
2018-02-16T11:10:40.300Z,18.75
2018-02-16T11:11:40.298Z,18.5
2018-02-16T11:12:40.387Z,18.5
2018-02-16T11:13:40.315Z,18.75
2018-02-16T11:14:40.297Z,18.5
2018-02-16T11:15:40.424Z,18.5
2018-02-16T11:16:40.398Z,18.75
2018-02-16T11:17:40.311Z,18.5
2018-02-16T11:18:40.289Z,18.5
2018-02-16T11:19:40.355Z,18.5
2018-02-16T11:20:40.304Z,18.5
2018-02-16T11:21:40.277Z,18.5
2018-02-16T11:22:40.271Z,18.75
2018-02-16T11:23:40.322Z,18.75
2018-02-16T11:24:40.371Z,18.75
2018-02-16T11:25:40.303Z,18.75
2018-02-16T11:26:40.334Z,18.75
2018-02-16T11:27:40.314Z,18.75
2018-02-16T11:28:40.341Z,18.75
2018-02-16T11:29:40.268Z,18.75
2018-02-16T11:30:40.383Z,18.75
2018-02-16T11:31:40.414Z,18.75
2018-02-16T11:32:40.299Z,19
2018-02-16T11:33:40.349Z,19
2018-02-16T11:34:40.323Z,19
2018-02-16T11:35:40.274Z,19
2018-02-16T11:36:40.303Z,19
2018-02-16T11:37:40.268Z,19
2018-02-16T11:38:40.290Z,19
2018-02-16T11:39:40.324Z,19
2018-02-16T11:40:40.336Z,19
2018-02-16T11:41:40.284Z,19
2018-02-16T11:42:40.418Z,19
2018-02-16T11:43:40.292Z,19
2018-02-16T11:44:40.284Z,19
2018-02-16T11:45:40.265Z,19
2018-02-16T11:46:40.275Z,19
2018-02-16T11:47:40.293Z,19
2018-02-16T11:48:40.326Z,19
2018-02-16T11:49:40.291Z,19
2018-02-16T11:50:40.286Z,19
2018-02-16T11:51:40.352Z,19
2018-02-16T11:52:40.300Z,19.25
2018-02-16T11:53:40.294Z,19
2018-02-16T11:54:40.413Z,19
2018-02-16T11:55:40.295Z,19.25
2018-02-16T11:56:40.289Z,19.25
2018-02-16T11:57:40.351Z,19.25
2018-02-16T11:58:40.285Z,19.25
2018-02-16T11:59:40.278Z,19.25
2018-02-16T12:00:40.397Z,19.25
2018-02-16T12:01:40.284Z,19.25
2018-02-16T12:02:40.292Z,19.25
2018-02-16T12:03:40.326Z,19.25
2018-02-16T12:04:40.358Z,19.25
2018-02-16T12:05:40.318Z,19.25
2018-02-16T12:06:40.294Z,19.25
2018-02-16T12:07:40.334Z,19.25
2018-02-16T12:08:40.257Z,19.25
2018-02-16T12:09:40.358Z,19.25
2018-02-16T12:10:40.663Z,19.25
2018-02-16T12:11:40.283Z,19.25
2018-02-16T12:12:40.301Z,19.25
2018-02-16T12:13:40.302Z,19.25
2018-02-16T12:14:40.281Z,19.25
2018-02-16T12:15:40.351Z,19.25
2018-02-16T12:16:40.365Z,19.25
2018-02-16T12:17:40.275Z,19.25
2018-02-16T12:18:40.294Z,19.25
2018-02-16T12:19:40.265Z,19.25
2018-02-16T12:20:40.298Z,19.25
2018-02-16T12:21:40.325Z,19.25
2018-02-16T12:22:40.262Z,19.25
2018-02-16T12:23:40.278Z,19.25
2018-02-16T12:24:40.272Z,19.25
2018-02-16T12:25:40.344Z,19.25
2018-02-16T12:26:40.286Z,19.25
2018-02-16T12:27:40.280Z,19.25
2018-02-16T12:28:40.277Z,19.25
2018-02-16T12:29:40.274Z,19.25
2018-02-16T12:30:40.302Z,19.25
2018-02-16T12:31:40.304Z,19.25
2018-02-16T12:32:40.255Z,19.25
2018-02-16T12:33:40.352Z,19
2018-02-16T12:34:40.260Z,19
2018-02-16T12:35:40.257Z,19
2018-02-16T12:36:40.300Z,19
2018-02-16T12:37:40.315Z,19
2018-02-16T12:38:40.289Z,19
2018-02-16T12:39:40.354Z,19
2018-02-16T12:40:40.352Z,19
2018-02-16T12:41:40.430Z,19
2018-02-16T12:42:40.318Z,19
2018-02-16T12:43:40.324Z,19
2018-02-16T12:44:40.255Z,19
2018-02-16T12:45:40.268Z,19
2018-02-16T12:46:40.276Z,19
2018-02-16T12:47:40.274Z,19
2018-02-16T12:48:40.280Z,19
2018-02-16T12:49:40.270Z,19
2018-02-16T12:50:40.268Z,19
2018-02-16T12:51:40.332Z,19
2018-02-16T12:52:40.279Z,19
2018-02-16T12:53:40.296Z,19
2018-02-16T12:54:40.354Z,19
2018-02-16T12:55:40.272Z,19
2018-02-16T12:56:40.342Z,19
2018-02-16T12:57:40.266Z,19
2018-02-16T12:58:40.368Z,19
2018-02-16T12:59:40.313Z,19
2018-02-16T13:00:40.303Z,19
2018-02-16T13:01:40.272Z,19
2018-02-16T13:02:40.250Z,19
2018-02-16T13:03:40.300Z,19
2018-02-16T13:04:40.288Z,19
2018-02-16T13:05:40.275Z,19.25
2018-02-16T13:06:40.279Z,19
2018-02-16T13:07:40.295Z,19
2018-02-16T13:08:40.259Z,19
2018-02-16T13:09:40.243Z,19
2018-02-16T13:10:40.256Z,19
2018-02-16T13:11:40.242Z,19
2018-02-16T13:12:40.244Z,19
2018-02-16T13:13:40.278Z,19
2018-02-16T13:14:40.271Z,19
2018-02-16T13:15:40.264Z,19
2018-02-16T13:16:41.161Z,19
2018-02-16T13:17:40.368Z,19
2018-02-16T13:18:40.293Z,19
2018-02-16T13:19:40.255Z,19
2018-02-16T13:20:40.263Z,19
2018-02-16T13:21:40.232Z,19
2018-02-16T13:22:40.257Z,19
2018-02-16T13:23:40.262Z,19
2018-02-16T13:24:40.264Z,19
2018-02-16T13:25:40.228Z,19
2018-02-16T13:26:40.227Z,19
2018-02-16T13:27:40.232Z,19
2018-02-16T13:28:40.259Z,19
2018-02-16T13:29:40.241Z,19
2018-02-16T13:30:40.325Z,19
2018-02-16T13:31:40.336Z,19
2018-02-16T13:32:40.245Z,19
2018-02-16T13:33:40.390Z,19
2018-02-16T13:34:40.247Z,19
2018-02-16T13:35:40.294Z,19
2018-02-16T13:36:40.243Z,19
2018-02-16T13:37:40.260Z,19
2018-02-16T13:38:40.510Z,19
2018-02-16T13:39:40.248Z,19
2018-02-16T13:40:40.249Z,19
2018-02-16T13:41:40.332Z,19
2018-02-16T13:42:40.250Z,19
2018-02-16T13:43:40.396Z,19
2018-02-16T13:44:40.230Z,19
2018-02-16T13:45:40.254Z,19
2018-02-16T13:46:40.232Z,19
2018-02-16T13:47:40.261Z,19
2018-02-16T13:48:40.285Z,19
2018-02-16T13:49:40.249Z,19
2018-02-16T13:50:40.269Z,19
2018-02-16T13:51:40.325Z,19
2018-02-16T13:52:40.407Z,19
2018-02-16T13:53:40.227Z,19
2018-02-16T13:54:40.304Z,19
2018-02-16T13:55:40.410Z,19
2018-02-16T13:56:40.269Z,19
2018-02-16T13:57:40.292Z,19
2018-02-16T13:58:40.229Z,19
2018-02-16T13:59:40.225Z,19
2018-02-16T14:00:40.259Z,19
2018-02-16T14:01:40.256Z,19
2018-02-16T14:02:40.244Z,19
2018-02-16T14:03:40.253Z,19
2018-02-16T14:04:40.249Z,19
2018-02-16T14:05:40.229Z,19
2018-02-16T14:06:40.238Z,19
2018-02-16T14:07:40.243Z,19
2018-02-16T14:08:40.232Z,19
2018-02-16T14:09:40.234Z,19
2018-02-16T14:10:40.224Z,19
2018-02-16T14:11:40.261Z,19
2018-02-16T14:12:40.248Z,19
2018-02-16T14:13:40.222Z,19
2018-02-16T14:14:40.233Z,19
2018-02-16T14:15:40.235Z,19
2018-02-16T14:16:40.258Z,19
2018-02-16T14:17:40.225Z,19
2018-02-16T14:18:40.242Z,19
2018-02-16T14:19:40.252Z,19
2018-02-16T14:20:40.241Z,19
2018-02-16T14:21:40.221Z,19
2018-02-16T14:22:40.216Z,19
2018-02-16T14:23:40.227Z,19
2018-02-16T14:24:40.238Z,19
2018-02-16T14:25:40.290Z,19
2018-02-16T14:26:40.216Z,19
2018-02-16T14:27:40.269Z,19.25
2018-02-16T14:28:40.256Z,19.25
2018-02-16T14:29:40.366Z,19.25
2018-02-16T14:30:40.275Z,19.25
2018-02-16T14:31:40.240Z,19.25
2018-02-16T14:32:40.231Z,19.25
2018-02-16T14:33:40.225Z,19.25
2018-02-16T14:34:40.228Z,19.25
2018-02-16T14:35:40.242Z,19.25
2018-02-16T14:36:40.232Z,19.25
2018-02-16T14:37:40.245Z,19.25
2018-02-16T14:38:40.241Z,19.25
2018-02-16T14:39:40.257Z,19.25
2018-02-16T14:40:40.288Z,19.25
2018-02-16T14:41:40.226Z,19.25
2018-02-16T14:42:40.230Z,19.25
2018-02-16T14:43:40.226Z,19.25
2018-02-16T14:44:40.232Z,19.25
2018-02-16T14:45:40.289Z,19.25
2018-02-16T14:46:40.313Z,19.25
2018-02-16T14:47:40.263Z,19.25
2018-02-16T14:48:40.221Z,19.25
2018-02-16T14:49:40.206Z,19.25
2018-02-16T14:50:40.214Z,19.25
2018-02-16T14:51:40.219Z,19.25
2018-02-16T14:52:40.236Z,19.25
2018-02-16T14:53:40.212Z,19.25
2018-02-16T14:54:40.266Z,19.25
2018-02-16T14:55:40.213Z,19.25
2018-02-16T14:56:40.245Z,19.25
2018-02-16T14:57:40.226Z,19.25
2018-02-16T14:58:40.238Z,19.25
2018-02-16T14:59:40.238Z,19.25
2018-02-16T15:00:40.292Z,19.25
2018-02-16T15:01:40.327Z,19.25
2018-02-16T15:02:40.223Z,19.25
2018-02-16T15:03:40.223Z,19.25
2018-02-16T15:04:40.502Z,19.25
2018-02-16T15:05:40.360Z,19.25
2018-02-16T15:06:40.477Z,19.25
2018-02-16T15:07:40.255Z,19.25
2018-02-16T15:08:40.231Z,19.25
2018-02-16T15:09:40.211Z,19.25
2018-02-16T15:10:40.208Z,19.25
2018-02-16T15:11:40.207Z,19.25
2018-02-16T15:12:40.227Z,19.25
2018-02-16T15:13:40.221Z,19.25
2018-02-16T15:14:40.242Z,19.25
2018-02-16T15:15:40.205Z,19.25
2018-02-16T15:16:40.200Z,19.25
2018-02-16T15:17:40.535Z,19.25
2018-02-16T15:18:40.335Z,19.25
2018-02-16T15:19:40.414Z,19.25
2018-02-16T15:20:40.205Z,19.25
2018-02-16T15:21:40.212Z,19.25
2018-02-16T15:22:40.201Z,19.25
2018-02-16T15:23:40.221Z,19.25
2018-02-16T15:24:40.226Z,19.25
2018-02-16T15:25:40.302Z,19.25
2018-02-16T15:26:40.322Z,19.25
2018-02-16T15:27:40.270Z,19.25
2018-02-16T15:28:40.224Z,19.25
2018-02-16T15:29:40.216Z,19.25
2018-02-16T15:30:40.198Z,19.25
2018-02-16T15:31:40.185Z,19.25
2018-02-16T15:32:40.194Z,19.25
2018-02-16T15:33:40.231Z,19.25
2018-02-16T15:34:40.194Z,19.25
2018-02-16T15:35:40.215Z,19.25
2018-02-16T15:36:40.198Z,19.25
2018-02-16T15:37:40.197Z,19.25
2018-02-16T15:38:40.220Z,19.25
2018-02-16T15:39:40.187Z,19.25
2018-02-16T15:40:40.237Z,19.25
2018-02-16T15:41:40.200Z,19.25
2018-02-16T15:42:40.237Z,19.25
2018-02-16T15:43:40.212Z,19.25
2018-02-16T15:44:40.196Z,19.25
2018-02-16T15:45:40.250Z,19.25
2018-02-16T15:46:40.214Z,19.25
2018-02-16T15:47:40.191Z,19.25
2018-02-16T15:48:40.196Z,19.25
2018-02-16T15:49:40.189Z,19.25
2018-02-16T15:50:40.441Z,19.25
2018-02-16T15:51:40.202Z,19.25
2018-02-16T15:52:40.204Z,19.25
2018-02-16T15:53:40.196Z,19.25
2018-02-16T15:54:40.182Z,19.25
2018-02-16T15:55:40.199Z,19.25
2018-02-16T15:56:40.218Z,19.25
2018-02-16T15:57:40.211Z,19.25
2018-02-16T15:58:40.210Z,19.25
2018-02-16T15:59:40.197Z,19.25
2018-02-16T16:00:40.185Z,19.25
2018-02-16T16:01:40.191Z,19.25
2018-02-16T16:02:40.196Z,19.25
2018-02-16T16:03:40.191Z,19.25
2018-02-16T16:04:40.190Z,19.25
2018-02-16T16:05:40.237Z,19.25
2018-02-16T16:06:40.200Z,19.25
2018-02-16T16:07:40.214Z,19.25
2018-02-16T16:08:40.190Z,19.25
2018-02-16T16:09:40.187Z,19.25
2018-02-16T16:10:40.259Z,19.25
2018-02-16T16:11:40.180Z,19.25
2018-02-16T16:12:40.213Z,19.25
2018-02-16T16:13:40.190Z,19.25
2018-02-16T16:14:40.206Z,19.25
2018-02-16T16:15:40.440Z,19.25
2018-02-16T16:16:40.172Z,19.25
2018-02-16T16:17:40.178Z,19.25
2018-02-16T16:18:40.184Z,19.25
2018-02-16T16:19:40.206Z,19.25
2018-02-16T16:20:40.294Z,19.25
2018-02-16T16:21:40.181Z,19.25
2018-02-16T16:22:40.180Z,19.25
2018-02-16T16:23:40.480Z,19.25
2018-02-16T16:24:40.195Z,19.25
2018-02-16T16:25:40.190Z,19.25
2018-02-16T16:26:40.186Z,19.25
2018-02-16T16:27:40.237Z,19.25
2018-02-16T16:28:40.238Z,19.25
2018-02-16T16:29:40.179Z,19.25
2018-02-16T16:30:40.181Z,19.25
2018-02-16T16:31:40.200Z,19.25
2018-02-16T16:32:40.192Z,19.25
2018-02-16T16:33:40.219Z,19.25
2018-02-16T16:34:40.182Z,19.25
2018-02-16T16:35:40.217Z,19.25
2018-02-16T16:36:40.188Z,19.25
2018-02-16T16:37:40.214Z,19.25
2018-02-16T16:38:40.191Z,19.25
2018-02-16T16:39:40.196Z,19.25
2018-02-16T16:40:40.210Z,19.25
2018-02-16T16:41:40.176Z,19.25
2018-02-16T16:42:40.214Z,19.25
2018-02-16T16:43:40.180Z,19.25
2018-02-16T16:44:40.176Z,19.25
2018-02-16T16:45:40.256Z,19
2018-02-16T16:46:40.183Z,19.25
2018-02-16T16:47:40.257Z,19.25
2018-02-16T16:48:40.188Z,19.25
2018-02-16T16:49:40.180Z,19.25
2018-02-16T16:50:40.202Z,19.25
2018-02-16T16:51:40.173Z,19.25
2018-02-16T16:52:40.209Z,19.25
2018-02-16T16:53:40.210Z,19.25
2018-02-16T16:54:40.188Z,19
2018-02-16T16:55:40.165Z,19
2018-02-16T16:56:40.231Z,19
2018-02-16T16:57:40.219Z,19
2018-02-16T16:58:40.205Z,19
2018-02-16T16:59:40.276Z,19
2018-02-16T17:00:40.162Z,19
2018-02-16T17:01:40.287Z,19
2018-02-16T17:02:40.214Z,19
2018-02-16T17:03:40.210Z,19
2018-02-16T17:04:40.166Z,19
2018-02-16T17:05:40.170Z,19
2018-02-16T17:06:40.171Z,19
2018-02-16T17:07:40.182Z,19
2018-02-16T17:08:40.194Z,19
2018-02-16T17:09:40.173Z,19
2018-02-16T17:10:40.196Z,19
2018-02-16T17:11:40.196Z,19.25
2018-02-16T17:12:40.173Z,19.25
2018-02-16T17:13:40.179Z,19.25
2018-02-16T17:14:40.160Z,19.25
2018-02-16T17:15:40.164Z,19.25
2018-02-16T17:16:40.214Z,19.25
2018-02-16T17:17:40.181Z,19.25
2018-02-16T17:18:40.267Z,19.25
2018-02-16T17:19:40.180Z,19.25
2018-02-16T17:20:40.152Z,19.25
2018-02-16T17:21:40.192Z,19.25
2018-02-16T17:22:40.169Z,19.25
2018-02-16T17:23:40.308Z,19.25
2018-02-16T17:24:40.279Z,19.25
2018-02-16T17:25:40.261Z,19.25
2018-02-16T17:26:40.187Z,19
2018-02-16T17:27:40.203Z,19.25
2018-02-16T17:28:40.170Z,19.25
2018-02-16T17:29:40.153Z,19
2018-02-16T17:30:40.175Z,19.25
2018-02-16T17:31:40.167Z,19
2018-02-16T17:32:40.300Z,19
2018-02-16T17:33:40.167Z,19.25
2018-02-16T17:34:40.162Z,19.25
2018-02-16T17:35:40.170Z,19.25
2018-02-16T17:36:40.251Z,19.25
2018-02-16T17:37:40.190Z,19.25
2018-02-16T17:38:40.160Z,19
2018-02-16T17:39:40.162Z,19.25
2018-02-16T17:40:40.154Z,19.25
2018-02-16T17:41:40.165Z,19.25
2018-02-16T17:42:40.160Z,19.25
2018-02-16T17:43:40.156Z,19.25
2018-02-16T17:44:40.230Z,19
2018-02-16T17:45:40.221Z,19
2018-02-16T17:46:40.228Z,19
2018-02-16T17:47:40.181Z,19
2018-02-16T17:48:40.158Z,19
2018-02-16T17:49:40.206Z,19
2018-02-16T17:50:40.149Z,19
2018-02-16T17:51:40.170Z,19
2018-02-16T17:52:40.185Z,19
2018-02-16T17:53:40.180Z,19
2018-02-16T17:54:40.183Z,19
2018-02-16T17:55:40.149Z,19
2018-02-16T17:56:40.160Z,19
2018-02-16T17:57:40.136Z,19
2018-02-16T17:58:40.186Z,19
2018-02-16T17:59:40.153Z,19
2018-02-16T18:00:40.162Z,19
2018-02-16T18:01:40.147Z,19
2018-02-16T18:02:40.179Z,19.25
2018-02-16T18:03:40.276Z,19
2018-02-16T18:04:40.241Z,19
2018-02-16T18:05:40.163Z,19
2018-02-16T18:06:40.142Z,19
2018-02-16T18:07:40.150Z,19
2018-02-16T18:08:40.171Z,19
2018-02-16T18:09:40.147Z,19
2018-02-16T18:10:40.254Z,19
2018-02-16T18:11:40.154Z,19
2018-02-16T18:12:40.265Z,19
2018-02-16T18:13:40.149Z,19
2018-02-16T18:14:40.145Z,19
2018-02-16T18:15:40.136Z,19
2018-02-16T18:16:40.151Z,19
2018-02-16T18:17:40.159Z,19
2018-02-16T18:18:40.143Z,19
2018-02-16T18:19:40.261Z,19
2018-02-16T18:20:40.297Z,19
2018-02-16T18:21:40.169Z,19
2018-02-16T18:22:40.143Z,19
2018-02-16T18:23:40.241Z,19
2018-02-16T18:24:40.262Z,19
2018-02-16T18:25:40.145Z,19
2018-02-16T18:26:40.139Z,19
2018-02-16T18:27:40.163Z,19
2018-02-16T18:28:40.159Z,19
2018-02-16T18:29:40.170Z,19
2018-02-16T18:30:40.141Z,19
2018-02-16T18:31:40.149Z,19
2018-02-16T18:32:40.141Z,19
2018-02-16T18:33:40.139Z,19
2018-02-16T18:34:40.296Z,19
2018-02-16T18:35:40.159Z,19
2018-02-16T18:36:40.128Z,19
2018-02-16T18:37:40.154Z,18.75
2018-02-16T18:38:40.191Z,18.75
2018-02-16T18:39:40.156Z,18.75
2018-02-16T18:40:40.130Z,18.75
2018-02-16T18:41:40.138Z,18.75
2018-02-16T18:42:40.164Z,18.75
2018-02-16T18:43:40.161Z,18.75
2018-02-16T18:44:40.180Z,18.75
2018-02-16T18:45:40.137Z,18.75
2018-02-16T18:46:40.154Z,18.75
2018-02-16T18:47:40.128Z,18.75
2018-02-16T18:48:40.156Z,18.75
2018-02-16T18:49:40.181Z,18.75
2018-02-16T18:50:40.192Z,18.75
2018-02-16T18:51:40.156Z,18.75
2018-02-16T18:52:40.122Z,18.75
2018-02-16T18:53:40.162Z,18.75
2018-02-16T18:54:40.124Z,18.75
2018-02-16T18:55:40.141Z,18.75
2018-02-16T18:56:40.165Z,18.75
2018-02-16T18:57:40.167Z,18.75
2018-02-16T18:58:40.266Z,18.75
2018-02-16T18:59:40.147Z,18.75
2018-02-16T19:00:40.148Z,18.75
2018-02-16T19:01:40.129Z,18.75
2018-02-16T19:02:40.131Z,18.75
2018-02-16T19:03:40.130Z,18.75
2018-02-16T19:04:40.233Z,18.75
2018-02-16T19:05:40.135Z,18.75
2018-02-16T19:06:40.154Z,18.75
2018-02-16T19:07:40.146Z,18.75
2018-02-16T19:08:40.144Z,18.75
2018-02-16T19:09:40.134Z,18.75
2018-02-16T19:10:40.247Z,18.75
2018-02-16T19:11:40.247Z,18.75
2018-02-16T19:12:40.131Z,18.75
2018-02-16T19:13:40.150Z,18.75
2018-02-16T19:14:40.143Z,18.75
2018-02-16T19:15:40.131Z,18.75
2018-02-16T19:16:40.213Z,18.75
2018-02-16T19:17:40.122Z,18.75
2018-02-16T19:18:40.624Z,18.75
2018-02-16T19:19:40.235Z,18.75
2018-02-16T19:20:40.141Z,18.75
2018-02-16T19:21:40.120Z,18.75
2018-02-16T19:22:40.141Z,18.75
2018-02-16T19:23:40.165Z,18.75
2018-02-16T19:24:40.133Z,18.5
2018-02-16T19:25:40.191Z,18.75
2018-02-16T19:26:40.459Z,18.75
2018-02-16T19:27:17.237Z,19.25
2018-02-16T19:28:16.861Z,19.25
2018-02-16T19:29:16.906Z,19.25
2018-02-16T19:30:16.911Z,19.25
2018-02-16T19:31:16.872Z,19.25
2018-02-16T19:32:16.886Z,19.25
2018-02-16T19:33:16.881Z,19.25
2018-02-16T19:34:17.393Z,19.25
2018-02-16T19:35:16.860Z,19.25
2018-02-16T19:36:16.887Z,19.25
2018-02-16T19:37:17.227Z,19.25
2018-02-16T19:38:17.147Z,19.25
2018-02-16T19:39:17.111Z,19.25
2018-02-16T19:40:16.903Z,19.25
2018-02-16T19:41:16.907Z,19.5
2018-02-16T19:42:17.009Z,19.5
2018-02-16T19:43:17.242Z,19.5
2018-02-16T19:44:16.876Z,19.5
2018-02-16T19:45:17.210Z,19.5
2018-02-16T19:46:17.022Z,19.5
2018-02-16T19:47:16.924Z,19.5
2018-02-16T19:48:17.479Z,19.5
2018-02-16T19:49:17.413Z,19.5
2018-02-16T19:50:17.309Z,19.5
2018-02-16T19:51:16.866Z,19.5
2018-02-16T19:52:16.899Z,19.5
2018-02-16T19:53:17.319Z,19.5
2018-02-16T19:54:16.855Z,19.5
2018-02-16T19:55:17.467Z,19.5
2018-02-16T19:56:16.891Z,19.5
2018-02-16T19:57:17.430Z,19.5
2018-02-16T19:58:17.347Z,19.5
2018-02-16T19:59:16.841Z,19.5
2018-02-16T20:00:16.888Z,19.5
2018-02-16T20:01:16.991Z,19.5
2018-02-16T20:02:16.877Z,19.5
2018-02-16T20:03:16.985Z,19.5
2018-02-16T20:04:16.925Z,19.5
2018-02-16T20:05:16.877Z,19.5
2018-02-16T20:06:17.061Z,19.5
2018-02-16T20:07:17.503Z,19.5
2018-02-16T20:08:17.343Z,19.5
2018-02-16T20:09:17.071Z,19.5
2018-02-16T20:10:16.873Z,19.5
2018-02-16T20:11:17.032Z,19.5
2018-02-16T20:12:16.853Z,19.5
2018-02-16T20:13:16.837Z,19.5
2018-02-16T20:14:17.535Z,19.5
2018-02-16T20:15:16.879Z,19.5
2018-02-16T20:16:17.350Z,19.5
2018-02-16T20:17:17.162Z,19.5
2018-02-16T20:18:17.047Z,19.5
2018-02-16T20:19:16.939Z,19.5
2018-02-16T20:20:16.988Z,19.5
2018-02-16T20:21:16.869Z,19.5
2018-02-16T20:22:17.397Z,19.5
2018-02-16T20:23:16.894Z,19.5
2018-02-16T20:24:16.836Z,19.5
2018-02-16T20:25:16.841Z,19.5
2018-02-16T20:26:17.214Z,19.5
2018-02-16T20:27:17.300Z,19.5
2018-02-16T20:28:17.227Z,19.5
2018-02-16T20:29:16.836Z,19.5
2018-02-16T20:30:16.998Z,19.5
2018-02-16T20:31:17.274Z,19.5
2018-02-16T20:32:16.838Z,19.5
2018-02-16T20:33:16.835Z,19.5
2018-02-16T20:34:17.183Z,19.5
2018-02-16T20:35:16.883Z,19.5
2018-02-16T20:36:17.101Z,19.5
2018-02-16T20:37:16.939Z,19.5
2018-02-16T20:38:16.821Z,19.5
2018-02-16T20:39:16.824Z,19.5
2018-02-16T20:40:16.828Z,19.5
2018-02-16T20:41:16.883Z,19.5
2018-02-16T20:42:16.834Z,19.5
2018-02-16T20:43:16.831Z,19.5
2018-02-16T20:44:16.986Z,19.5
2018-02-16T20:45:16.828Z,19.5
2018-02-16T20:46:16.874Z,19.5
2018-02-16T20:47:16.861Z,19.5
2018-02-16T20:48:16.943Z,19.5
2018-02-16T20:49:17.196Z,19.5
2018-02-16T20:50:16.843Z,19.5
2018-02-16T20:51:16.822Z,19.5
2018-02-16T20:52:17.003Z,19.5